createdAt,value
2023-03-19T00:02:25.973Z,11.10
2023-03-19T00:04:55.290Z,11.10
2023-03-19T00:07:24.045Z,11.10
2023-03-19T00:09:52.173Z,11.10
2023-03-19T00:12:20.105Z,11.10
2023-03-19T00:14:48.099Z,11.10
2023-03-19T00:17:16.148Z,11.10
2023-03-19T00:19:44.548Z,11.10
2023-03-19T00:22:13.890Z,11.10
2023-03-19T00:24:41.770Z,11.10
2023-03-19T00:27:09.906Z,11.10
2023-03-19T00:29:37.816Z,11.10
2023-03-19T00:32:07.274Z,11.10
2023-03-19T00:34:35.840Z,11.10
2023-03-19T00:37:03.833Z,11.00
2023-03-19T00:39:33.202Z,11.00
2023-03-19T00:42:01.450Z,11.00
2023-03-19T00:44:29.408Z,10.90
2023-03-19T00:46:57.368Z,10.80
2023-03-19T00:49:25.291Z,10.80
2023-03-19T00:51:53.300Z,10.80
2023-03-19T00:54:21.257Z,10.70
2023-03-19T00:56:50.573Z,10.70
2023-03-19T00:59:18.595Z,10.70
2023-03-19T01:01:46.961Z,10.60
2023-03-19T01:04:14.956Z,10.50
2023-03-19T01:06:43.090Z,10.60
2023-03-19T01:09:11.687Z,10.50
2023-03-19T01:11:39.694Z,10.50
2023-03-19T01:14:09.132Z,10.50
2023-03-19T01:16:37.195Z,10.40
2023-03-19T01:19:06.304Z,10.50
2023-03-19T01:21:36.408Z,10.50
2023-03-19T01:24:05.143Z,10.50
2023-03-19T01:26:33.515Z,10.50
2023-03-19T01:29:16.262Z,10.60
2023-03-19T01:31:44.610Z,10.60
2023-03-19T01:34:35.549Z,10.60
2023-03-19T01:37:09.723Z,10.50
2023-03-19T01:39:38.747Z,10.40
2023-03-19T01:42:11.101Z,10.30
2023-03-19T01:45:00.865Z,10.30
2023-03-19T01:47:43.882Z,10.20
2023-03-19T01:50:24.874Z,10.20
2023-03-19T01:53:04.585Z,10.20
2023-03-19T01:55:48.486Z,10.20
2023-03-19T01:58:28.749Z,10.20
2023-03-19T02:01:24.561Z,10.20
2023-03-19T02:03:55.228Z,10.10
2023-03-19T02:06:28.315Z,10.00
2023-03-19T02:08:58.202Z,10.00
2023-03-19T02:11:27.883Z,10.00
2023-03-19T02:13:55.980Z,9.90
2023-03-19T02:16:25.576Z,9.80
2023-03-19T02:18:54.361Z,9.80
2023-03-19T02:21:23.104Z,9.70
2023-03-19T02:23:58.510Z,9.70
2023-03-19T02:26:47.102Z,9.70
2023-03-19T02:29:15.513Z,9.60
2023-03-19T02:31:43.874Z,9.60
2023-03-19T02:34:34.412Z,9.50
2023-03-19T02:37:08.956Z,9.50
2023-03-19T02:39:43.627Z,9.50
2023-03-19T02:42:15.821Z,9.50
2023-03-19T02:44:44.080Z,9.50
2023-03-19T02:47:12.110Z,9.60
2023-03-19T02:49:40.037Z,9.60
2023-03-19T02:52:08.507Z,9.50
2023-03-19T02:54:36.593Z,9.50
2023-03-19T02:57:05.400Z,9.50
2023-03-19T02:59:35.000Z,9.50
2023-03-19T03:02:03.196Z,9.50
2023-03-19T03:04:31.977Z,9.50
2023-03-19T03:06:59.895Z,9.50
2023-03-19T03:09:28.341Z,9.50
2023-03-19T03:11:56.384Z,9.40
2023-03-19T03:14:24.675Z,9.40
2023-03-19T03:16:54.061Z,9.40
2023-03-19T03:19:23.363Z,9.30
2023-03-19T03:21:51.945Z,9.30
2023-03-19T03:24:20.058Z,9.30
2023-03-19T03:26:48.056Z,9.20
2023-03-19T03:29:16.649Z,9.10
2023-03-19T03:31:44.887Z,9.10
2023-03-19T03:34:14.395Z,9.10
2023-03-19T03:36:42.329Z,9.00
2023-03-19T03:39:10.318Z,9.00
2023-03-19T03:41:38.563Z,9.00
2023-03-19T03:44:06.853Z,8.90
2023-03-19T03:46:37.249Z,8.90
2023-03-19T03:49:05.283Z,8.90
2023-03-19T03:51:34.853Z,8.90
2023-03-19T03:54:03.811Z,8.90
2023-03-19T03:56:33.193Z,8.80
2023-03-19T03:59:01.902Z,8.80
2023-03-19T04:01:29.866Z,8.90
2023-03-19T04:03:58.559Z,9.00
2023-03-19T04:06:27.958Z,9.10
2023-03-19T04:09:23.534Z,9.10
2023-03-19T04:11:51.783Z,9.10
2023-03-19T04:14:20.142Z,9.20
2023-03-19T04:16:48.241Z,9.20
2023-03-19T04:19:16.922Z,9.20
2023-03-19T04:21:44.978Z,9.20
2023-03-19T04:24:14.197Z,9.20
2023-03-19T04:26:43.634Z,9.10
2023-03-19T04:29:11.689Z,9.10
2023-03-19T04:31:40.563Z,9.00
2023-03-19T04:34:08.585Z,9.00
2023-03-19T04:36:36.644Z,8.90
2023-03-19T04:39:05.745Z,8.90
2023-03-19T04:41:33.741Z,8.90
2023-03-19T04:44:14.911Z,8.90
2023-03-19T04:46:44.822Z,8.90
2023-03-19T04:49:15.732Z,8.90
2023-03-19T04:51:44.698Z,8.90
2023-03-19T04:54:12.899Z,9.00
2023-03-19T04:56:41.036Z,9.00
2023-03-19T04:59:10.522Z,9.00
2023-03-19T05:01:39.999Z,8.90
2023-03-19T05:04:10.567Z,8.80
2023-03-19T05:06:39.561Z,8.70
2023-03-19T05:09:08.296Z,8.70
2023-03-19T05:11:36.685Z,8.70
2023-03-19T05:14:12.985Z,8.60
2023-03-19T05:16:58.292Z,8.60
2023-03-19T05:19:29.145Z,8.60
2023-03-19T05:21:58.064Z,8.60
2023-03-19T05:24:28.136Z,8.60
2023-03-19T05:26:58.168Z,8.70
2023-03-19T05:29:44.274Z,8.70
2023-03-19T05:32:37.475Z,8.70
2023-03-19T05:35:08.661Z,8.70
2023-03-19T05:37:37.839Z,8.70
2023-03-19T05:40:06.850Z,8.70
2023-03-19T05:42:35.349Z,8.80
2023-03-19T05:45:04.434Z,8.90
2023-03-19T05:47:48.368Z,8.90
2023-03-19T05:50:16.553Z,9.00
2023-03-19T05:52:58.493Z,9.10
2023-03-19T05:55:27.032Z,9.10
2023-03-19T05:58:02.178Z,9.20
2023-03-19T06:00:31.815Z,9.20
2023-03-19T06:03:01.477Z,9.30
2023-03-19T06:05:38.831Z,9.40
2023-03-19T06:08:21.818Z,9.40
2023-03-19T06:11:14.747Z,9.50
2023-03-19T06:13:46.105Z,9.50
2023-03-19T06:16:17.392Z,9.50
2023-03-19T06:18:57.353Z,9.60
2023-03-19T06:21:29.479Z,9.70
2023-03-19T06:24:00.220Z,9.70
2023-03-19T06:26:35.098Z,9.80
2023-03-19T06:29:08.309Z,9.90
2023-03-19T06:31:39.362Z,10.00
2023-03-19T06:34:18.252Z,10.10
2023-03-19T06:36:46.801Z,10.10
2023-03-19T06:39:17.580Z,10.20
2023-03-19T06:41:47.117Z,10.30
2023-03-19T06:44:19.153Z,10.40
2023-03-19T06:46:47.266Z,10.40
2023-03-19T06:49:15.429Z,10.40
2023-03-19T06:51:44.776Z,10.50
2023-03-19T06:54:12.722Z,10.50
2023-03-19T06:56:40.677Z,10.60
2023-03-19T06:59:12.301Z,10.70
2023-03-19T07:01:41.507Z,10.70
2023-03-19T07:04:09.878Z,10.80
2023-03-19T07:06:37.867Z,10.80
2023-03-19T07:09:07.558Z,10.90
2023-03-19T07:11:36.098Z,10.90
2023-03-19T07:14:04.474Z,11.00
2023-03-19T07:16:32.739Z,11.10
2023-03-19T07:19:00.883Z,11.20
2023-03-19T07:21:29.003Z,11.30
2023-03-19T07:23:57.090Z,11.40
2023-03-19T07:26:27.589Z,11.50
2023-03-19T07:28:56.562Z,11.50
2023-03-19T07:31:24.464Z,11.60
2023-03-19T07:33:52.433Z,11.70
2023-03-19T07:36:21.242Z,11.70
2023-03-19T07:38:49.235Z,11.80
2023-03-19T07:41:17.205Z,11.90
2023-03-19T07:43:46.532Z,12.00
2023-03-19T07:46:16.394Z,12.00
2023-03-19T07:48:44.409Z,12.10
2023-03-19T07:51:12.374Z,12.30
2023-03-19T07:53:40.509Z,12.50
2023-03-19T07:56:08.881Z,12.80
2023-03-19T07:58:36.834Z,13.10
2023-03-19T08:01:07.048Z,13.30
2023-03-19T08:03:35.185Z,13.50
2023-03-19T08:06:03.921Z,13.90
2023-03-19T08:08:34.910Z,14.00
2023-03-19T08:11:03.206Z,14.10
2023-03-19T08:13:31.590Z,14.20
2023-03-19T08:15:59.655Z,14.40
2023-03-19T08:18:29.131Z,14.60
2023-03-19T08:20:57.080Z,14.80
2023-03-19T08:23:25.144Z,14.90
2023-03-19T08:25:53.569Z,14.80
2023-03-19T08:28:21.826Z,14.80
2023-03-19T08:30:50.117Z,14.90
2023-03-19T08:33:18.275Z,15.00
2023-03-19T08:35:47.799Z,15.10
2023-03-19T08:38:15.876Z,15.20
2023-03-19T08:40:43.784Z,15.40
2023-03-19T08:43:12.067Z,15.50
2023-03-19T08:45:40.047Z,15.60
2023-03-19T08:48:08.044Z,15.70
2023-03-19T08:50:36.426Z,15.70
2023-03-19T08:53:06.125Z,15.70
2023-03-19T08:55:34.095Z,15.70
2023-03-19T08:58:02.192Z,15.70
2023-03-19T09:00:30.092Z,15.70
2023-03-19T09:02:58.124Z,15.70
2023-03-19T09:05:28.132Z,15.70
2023-03-19T09:07:57.770Z,15.70
2023-03-19T09:10:27.237Z,15.80
2023-03-19T09:12:55.269Z,15.90
2023-03-19T09:15:23.185Z,15.90
2023-03-19T09:17:51.249Z,15.80
2023-03-19T09:20:19.543Z,15.80
2023-03-19T09:22:47.608Z,15.90
2023-03-19T09:25:15.626Z,15.90
2023-03-19T09:27:45.240Z,16.00
2023-03-19T09:30:14.228Z,16.10
2023-03-19T09:32:42.337Z,16.10
2023-03-19T09:35:10.922Z,16.10
2023-03-19T09:37:38.890Z,16.40
2023-03-19T09:40:08.384Z,16.60
2023-03-19T09:42:56.924Z,16.70
2023-03-19T09:45:25.950Z,16.70
2023-03-19T09:47:59.645Z,16.80
2023-03-19T09:50:29.573Z,16.90
2023-03-19T09:53:02.750Z,17.20
2023-03-19T09:55:40.928Z,17.10
2023-03-19T09:58:15.970Z,17.00
2023-03-19T10:00:45.444Z,17.10
2023-03-19T10:03:36.520Z,17.30
2023-03-19T10:06:19.660Z,17.50
2023-03-19T10:09:01.173Z,17.70
2023-03-19T10:11:42.956Z,17.80
2023-03-19T10:14:42.304Z,17.70
2023-03-19T10:17:17.447Z,17.70
2023-03-19T10:19:50.059Z,17.80
2023-03-19T10:22:22.911Z,17.80
2023-03-19T10:24:53.289Z,17.80
2023-03-19T10:27:23.544Z,17.70
2023-03-19T10:29:53.542Z,17.80
2023-03-19T10:32:29.452Z,17.70
2023-03-19T10:35:02.792Z,17.60
2023-03-19T10:37:31.303Z,17.70
2023-03-19T10:40:01.384Z,17.60
2023-03-19T10:42:54.638Z,17.60
2023-03-19T10:45:29.172Z,17.50
2023-03-19T10:47:58.476Z,17.70
2023-03-19T10:50:31.344Z,17.70
2023-03-19T10:53:06.796Z,17.80
2023-03-19T10:55:35.962Z,18.00
2023-03-19T10:58:07.788Z,18.00
2023-03-19T11:00:37.477Z,18.30
2023-03-19T11:03:05.936Z,18.40
2023-03-19T11:05:35.350Z,18.40
2023-03-19T11:08:05.756Z,18.30
2023-03-19T11:10:35.965Z,18.30
2023-03-19T11:13:07.425Z,18.60
2023-03-19T11:15:38.642Z,18.70
2023-03-19T11:18:17.999Z,18.70
2023-03-19T11:20:50.815Z,18.50
2023-03-19T11:23:20.390Z,18.40
2023-03-19T11:25:53.064Z,18.10
2023-03-19T11:28:25.985Z,17.80
2023-03-19T11:31:01.633Z,17.60
2023-03-19T11:33:51.234Z,17.60
2023-03-19T11:36:23.871Z,17.60
2023-03-19T11:39:07.640Z,17.70
2023-03-19T11:41:50.686Z,17.70
2023-03-19T11:44:25.202Z,17.70
2023-03-19T11:47:14.852Z,17.80
2023-03-19T11:50:04.805Z,18.00
2023-03-19T11:52:40.062Z,18.10
2023-03-19T11:55:21.306Z,18.00
2023-03-19T11:58:05.466Z,18.00
2023-03-19T12:00:39.212Z,18.00
2023-03-19T12:03:49.036Z,18.10
2023-03-19T12:06:30.424Z,18.10
2023-03-19T12:09:03.908Z,18.10
2023-03-19T12:11:43.962Z,17.90
2023-03-19T12:14:26.637Z,17.90
2023-03-19T12:17:17.998Z,17.90
2023-03-19T12:20:11.803Z,17.80
2023-03-19T12:22:57.600Z,17.70
2023-03-19T12:25:45.488Z,17.70
2023-03-19T12:28:23.822Z,17.70
2023-03-19T12:31:09.831Z,17.70
2023-03-19T12:33:45.382Z,17.80
2023-03-19T12:36:18.185Z,18.00
2023-03-19T12:38:50.941Z,18.00
2023-03-19T12:41:23.135Z,18.00
2023-03-19T12:43:56.923Z,18.00
2023-03-19T12:46:29.726Z,17.80
2023-03-19T12:49:00.915Z,17.50
2023-03-19T12:51:35.300Z,17.20
2023-03-19T12:54:09.093Z,17.00
2023-03-19T12:56:45.494Z,16.90
2023-03-19T12:59:18.526Z,16.80
2023-03-19T13:01:50.516Z,16.50
2023-03-19T13:04:23.340Z,16.50
2023-03-19T13:06:56.086Z,16.50
2023-03-19T13:09:32.869Z,16.30
2023-03-19T13:12:07.807Z,16.30
2023-03-19T13:14:45.053Z,16.20
2023-03-19T13:17:21.448Z,15.90
2023-03-19T13:19:53.946Z,15.80
2023-03-19T13:22:24.148Z,15.70
2023-03-19T13:24:55.152Z,15.60
2023-03-19T13:27:27.135Z,15.40
2023-03-19T13:30:22.991Z,15.40
2023-03-19T13:32:54.316Z,15.20
2023-03-19T13:35:40.521Z,15.00
2023-03-19T13:38:19.430Z,15.00
2023-03-19T13:40:51.103Z,15.20
2023-03-19T13:43:43.987Z,15.50
2023-03-19T13:46:45.057Z,15.80
2023-03-19T13:49:31.119Z,16.00
2023-03-19T13:52:24.901Z,16.10
2023-03-19T13:54:56.680Z,16.10
2023-03-19T13:57:36.731Z,16.10
2023-03-19T14:00:47.311Z,16.10
2023-03-19T14:03:22.092Z,16.10
2023-03-19T14:05:51.848Z,16.10
2023-03-19T14:08:23.174Z,15.90
2023-03-19T14:10:53.925Z,15.80
2023-03-19T14:13:32.291Z,15.80
2023-03-19T14:16:08.767Z,15.70
2023-03-19T14:18:41.975Z,15.70
2023-03-19T14:21:16.248Z,15.60
2023-03-19T14:23:54.971Z,15.40
2023-03-19T14:26:26.049Z,15.30
2023-03-19T14:29:00.531Z,15.30
2023-03-19T14:31:34.774Z,15.30
2023-03-19T14:34:08.796Z,15.30
2023-03-19T14:36:39.265Z,15.40
2023-03-19T14:39:14.082Z,15.40
2023-03-19T14:41:47.123Z,15.40
2023-03-19T14:44:46.665Z,15.30
2023-03-19T14:47:27.513Z,15.20
2023-03-19T14:50:17.396Z,15.00
2023-03-19T14:52:48.300Z,14.90
2023-03-19T14:55:18.380Z,14.80
2023-03-19T14:57:46.693Z,14.80
2023-03-19T15:00:19.602Z,14.90
2023-03-19T15:02:50.163Z,15.00
2023-03-19T15:05:23.360Z,15.00
2023-03-19T15:07:55.402Z,15.10
2023-03-19T15:10:26.146Z,15.20
2023-03-19T15:13:20.229Z,15.30
2023-03-19T15:16:08.079Z,15.20
2023-03-19T15:18:38.828Z,15.30
2023-03-19T15:21:07.747Z,15.10
2023-03-19T15:23:36.135Z,15.10
2023-03-19T15:26:08.664Z,15.10
2023-03-19T15:28:48.047Z,15.20
2023-03-19T15:31:32.029Z,15.20
2023-03-19T15:34:19.209Z,15.10
2023-03-19T15:36:48.810Z,15.10
2023-03-19T15:39:20.524Z,15.20
2023-03-19T15:41:51.286Z,15.20
2023-03-19T15:44:23.416Z,15.40
2023-03-19T15:46:53.325Z,15.40
2023-03-19T15:49:25.229Z,15.50
2023-03-19T15:51:59.724Z,15.50
2023-03-19T15:54:28.350Z,15.50
2023-03-19T15:56:57.985Z,15.50
2023-03-19T15:59:29.980Z,15.50
2023-03-19T16:02:01.476Z,15.50
2023-03-19T16:04:38.422Z,15.40
2023-03-19T16:07:24.418Z,15.30
2023-03-19T16:09:52.724Z,15.20
2023-03-19T16:12:38.412Z,15.20
2023-03-19T16:15:29.874Z,15.20
2023-03-19T16:18:10.866Z,15.10
2023-03-19T16:20:45.497Z,15.00
2023-03-19T16:23:18.103Z,14.80
2023-03-19T16:25:47.365Z,14.80
2023-03-19T16:28:18.609Z,14.70
2023-03-19T16:30:48.760Z,14.70
2023-03-19T16:33:20.031Z,14.70
2023-03-19T16:35:48.284Z,14.70
2023-03-19T16:38:19.089Z,14.70
2023-03-19T16:40:48.804Z,14.70
2023-03-19T16:43:22.347Z,14.70
2023-03-19T16:46:04.810Z,14.70
2023-03-19T16:48:34.160Z,14.80
2023-03-19T16:51:02.043Z,14.80
2023-03-19T16:53:31.542Z,14.70
2023-03-19T16:56:01.627Z,14.70
2023-03-19T16:58:32.213Z,14.60
2023-03-19T17:01:00.402Z,14.60
2023-03-19T17:03:30.099Z,14.50
2023-03-19T17:05:59.402Z,14.50
2023-03-19T17:08:27.275Z,14.40
2023-03-19T17:10:56.173Z,14.30
2023-03-19T17:13:28.082Z,14.30
2023-03-19T17:15:58.044Z,14.30
2023-03-19T17:18:29.118Z,14.20
2023-03-19T17:21:02.027Z,14.20
2023-03-19T17:23:30.442Z,14.10
2023-03-19T17:25:59.042Z,14.00
2023-03-19T17:28:26.981Z,14.00
2023-03-19T17:30:55.642Z,13.90
2023-03-19T17:33:26.678Z,13.80
2023-03-19T17:35:56.174Z,13.70
2023-03-19T17:38:29.947Z,13.60
2023-03-19T17:40:57.961Z,13.60
2023-03-19T17:43:25.881Z,13.50
2023-03-19T17:45:55.583Z,13.40
2023-03-19T17:48:27.019Z,13.30
2023-03-19T17:50:59.650Z,13.20
2023-03-19T17:53:30.116Z,13.10
2023-03-19T17:55:58.231Z,13.10
2023-03-19T17:58:26.377Z,13.00
2023-03-19T18:00:54.482Z,12.90
2023-03-19T18:03:24.824Z,12.90
2023-03-19T18:05:52.805Z,12.80
2023-03-19T18:08:23.549Z,12.80
2023-03-19T18:10:52.979Z,12.60
2023-03-19T18:13:21.289Z,12.60
2023-03-19T18:15:49.593Z,12.50
2023-03-19T18:18:20.182Z,12.50
2023-03-19T18:20:49.200Z,12.40
2023-03-19T18:23:17.695Z,12.30
2023-03-19T18:25:46.642Z,12.30
2023-03-19T18:28:16.046Z,12.10
2023-03-19T18:30:45.850Z,12.10
2023-03-19T18:33:17.551Z,12.00
2023-03-19T18:35:46.588Z,11.90
2023-03-19T18:38:18.632Z,11.90
2023-03-19T18:40:46.989Z,11.80
2023-03-19T18:43:16.641Z,11.70
2023-03-19T18:45:46.644Z,11.60
2023-03-19T18:48:21.563Z,11.50
2023-03-19T18:50:49.663Z,11.40
2023-03-19T18:53:17.811Z,11.30
2023-03-19T18:55:46.406Z,11.20
2023-03-19T18:58:20.365Z,11.20
2023-03-19T19:00:49.235Z,11.20
2023-03-19T19:03:19.081Z,11.10
2023-03-19T19:05:49.571Z,11.00
2023-03-19T19:08:19.808Z,10.90
2023-03-19T19:10:51.172Z,10.90
2023-03-19T19:13:23.054Z,10.80
2023-03-19T19:15:52.218Z,10.70
2023-03-19T19:18:22.362Z,10.70
2023-03-19T19:20:52.363Z,10.60
2023-03-19T19:23:21.962Z,10.50
2023-03-19T19:25:52.095Z,10.50
2023-03-19T19:28:26.674Z,10.40
2023-03-19T19:30:57.281Z,10.40
2023-03-19T19:33:28.546Z,10.30
2023-03-19T19:35:57.207Z,10.30
2023-03-19T19:38:25.396Z,10.20
2023-03-19T19:40:55.799Z,10.20
2023-03-19T19:43:28.469Z,10.20
2023-03-19T19:45:59.452Z,10.10
2023-03-19T19:48:29.344Z,10.10
2023-03-19T19:50:57.980Z,10.00
2023-03-19T19:53:27.341Z,10.00
2023-03-19T19:55:56.281Z,10.00
2023-03-19T19:58:29.172Z,10.00
2023-03-19T20:01:03.893Z,9.90
2023-03-19T20:03:34.505Z,9.80
2023-03-19T20:06:03.331Z,9.70
2023-03-19T20:08:31.447Z,9.70
2023-03-19T20:10:59.519Z,9.60
2023-03-19T20:13:31.215Z,9.50
2023-03-19T20:16:00.892Z,9.50
2023-03-19T20:18:31.984Z,9.40
2023-03-19T20:21:00.981Z,9.40
2023-03-19T20:23:29.239Z,9.40
2023-03-19T20:25:58.207Z,9.30
2023-03-19T20:28:32.272Z,9.30
2023-03-19T20:31:01.253Z,9.30
2023-03-19T20:33:31.137Z,9.20
2023-03-19T20:35:59.319Z,9.20
2023-03-19T20:38:29.039Z,9.10
2023-03-19T20:40:58.794Z,9.00
2023-03-19T20:43:30.733Z,9.00
2023-03-19T20:46:01.801Z,8.90
2023-03-19T20:48:30.640Z,9.00
2023-03-19T20:50:59.319Z,9.10
2023-03-19T20:53:27.420Z,9.20
2023-03-19T20:55:56.330Z,9.30
2023-03-19T20:58:27.440Z,9.40
2023-03-19T21:00:58.458Z,9.40
2023-03-19T21:03:28.243Z,9.40
2023-03-19T21:06:01.737Z,9.50
2023-03-19T21:08:32.674Z,9.50
2023-03-19T21:11:01.304Z,9.50
2023-03-19T21:13:29.668Z,9.50
2023-03-19T21:15:59.571Z,9.50
2023-03-19T21:18:27.672Z,9.50
2023-03-19T21:20:57.574Z,9.50
2023-03-19T21:23:29.955Z,9.60
2023-03-19T21:25:59.139Z,9.60
2023-03-19T21:28:30.801Z,9.60
2023-03-19T21:31:00.590Z,9.60
2023-03-19T21:33:30.707Z,9.50
2023-03-19T21:35:59.730Z,9.50
2023-03-19T21:38:28.177Z,9.50
2023-03-19T21:40:58.815Z,9.50
2023-03-19T21:43:33.631Z,9.60
2023-03-19T21:46:17.490Z,9.60
2023-03-19T21:48:51.885Z,9.50
2023-03-19T21:51:19.844Z,9.40
2023-03-19T21:53:47.981Z,9.50
2023-03-19T21:56:22.279Z,9.40
2023-03-19T21:58:51.969Z,9.30
2023-03-19T22:01:24.025Z,9.40
2023-03-19T22:03:52.836Z,9.30
2023-03-19T22:06:21.920Z,9.30
2023-03-19T22:08:50.905Z,9.20
2023-03-19T22:11:21.661Z,9.10
2023-03-19T22:13:49.883Z,9.10
2023-03-19T22:16:23.162Z,9.10
2023-03-19T22:18:51.986Z,9.10
2023-03-19T22:21:21.783Z,9.10
2023-03-19T22:23:49.933Z,9.20
2023-03-19T22:26:30.068Z,9.20
2023-03-19T22:29:00.255Z,9.20
2023-03-19T22:31:30.083Z,9.30
2023-03-19T22:33:58.422Z,9.40
2023-03-19T22:36:26.367Z,9.40
2023-03-19T22:38:54.342Z,9.40
2023-03-19T22:41:28.144Z,9.40
2023-03-19T22:43:57.763Z,9.50
2023-03-19T22:46:26.511Z,9.50
2023-03-19T22:48:56.141Z,9.50
2023-03-19T22:51:26.105Z,9.50
2023-03-19T22:53:55.158Z,9.50
2023-03-19T22:56:23.447Z,9.50
2023-03-19T22:58:52.238Z,9.50
2023-03-19T23:01:30.891Z,9.50
2023-03-19T23:04:22.138Z,9.50
2023-03-19T23:06:51.560Z,9.60
2023-03-19T23:09:22.077Z,9.60
2023-03-19T23:11:50.136Z,9.60
2023-03-19T23:14:29.214Z,9.60
2023-03-19T23:16:59.980Z,9.60
2023-03-19T23:19:32.054Z,9.60
2023-03-19T23:22:02.386Z,9.50
2023-03-19T23:24:30.939Z,9.50
2023-03-19T23:26:59.946Z,9.50
2023-03-19T23:29:30.749Z,9.40
2023-03-19T23:31:59.364Z,9.50
2023-03-19T23:34:29.386Z,9.50
2023-03-19T23:36:57.909Z,9.60
2023-03-19T23:39:25.932Z,9.60
2023-03-19T23:41:57.673Z,9.60
2023-03-19T23:44:26.312Z,9.60
2023-03-19T23:46:54.791Z,9.60
2023-03-19T23:49:28.570Z,9.70
2023-03-19T23:51:58.936Z,9.70
2023-03-19T23:54:32.394Z,9.70
2023-03-19T23:57:03.424Z,9.70
2023-03-19T23:59:35.174Z,9.70
